createdAt,value
2018-09-18T00:02:19.224Z,9.77
2018-09-18T00:04:45.491Z,10.50
2018-09-18T00:07:11.768Z,10.30
2018-09-18T00:09:38.026Z,11.10
2018-09-18T00:12:05.073Z,10.83
2018-09-18T00:14:32.066Z,12.83
2018-09-18T00:16:58.357Z,11.70
2018-09-18T00:19:25.371Z,11.47
2018-09-18T00:21:51.648Z,9.60
2018-09-18T00:24:17.929Z,10.30
2018-09-18T00:26:44.188Z,10.20
2018-09-18T00:29:10.510Z,9.13
2018-09-18T00:31:36.772Z,9.40
2018-09-18T00:34:03.061Z,10.93
2018-09-18T00:36:29.329Z,10.20
2018-09-18T00:38:56.318Z,10.80
2018-09-18T00:41:22.593Z,10.43
2018-09-18T00:43:48.835Z,11.07
2018-09-18T00:46:15.141Z,9.63
2018-09-18T00:48:41.403Z,11.53
2018-09-18T00:51:07.696Z,9.63
2018-09-18T00:53:33.984Z,10.80
2018-09-18T00:56:00.257Z,10.93
2018-09-18T00:58:26.529Z,9.57
2018-09-18T01:00:52.809Z,12.93
2018-09-18T01:03:19.056Z,11.47
2018-09-18T01:05:45.338Z,12.50
2018-09-18T01:08:11.617Z,12.57
2018-09-18T01:10:37.930Z,12.20
2018-09-18T01:13:04.189Z,12.87
2018-09-18T01:15:31.218Z,12.50
2018-09-18T01:17:57.535Z,12.97
2018-09-18T01:20:23.781Z,12.50
2018-09-18T01:22:50.017Z,12.20
2018-09-18T01:25:16.321Z,11.93
2018-09-18T01:27:42.625Z,12.83
2018-09-18T01:30:08.937Z,12.07
2018-09-18T01:32:35.313Z,12.27
2018-09-18T01:35:01.577Z,12.50
2018-09-18T01:37:27.833Z,13.60
2018-09-18T01:39:54.131Z,12.73
2018-09-18T01:42:21.129Z,10.77
2018-09-18T01:44:47.423Z,10.80
2018-09-18T01:47:13.667Z,11.83
2018-09-18T01:49:39.938Z,13.27
2018-09-18T01:52:06.221Z,11.30
2018-09-18T01:54:33.236Z,12.67
2018-09-18T01:56:59.561Z,11.97
2018-09-18T01:59:25.846Z,12.47
2018-09-18T02:01:52.130Z,12.90
2018-09-18T02:04:18.410Z,12.30
2018-09-18T02:06:44.674Z,11.93
2018-09-18T02:09:10.910Z,11.50
2018-09-18T02:11:37.187Z,13.00
2018-09-18T02:14:03.457Z,12.60
2018-09-18T02:16:29.787Z,13.60
2018-09-18T02:18:56.024Z,14.80
2018-09-18T02:21:22.293Z,13.20
2018-09-18T02:23:48.534Z,11.80
2018-09-18T02:26:15.568Z,12.33
2018-09-18T02:28:41.815Z,12.13
2018-09-18T02:31:08.150Z,11.40
2018-09-18T02:33:34.416Z,13.47
2018-09-18T02:36:00.673Z,13.77
2018-09-18T02:38:26.918Z,13.33
2018-09-18T02:40:53.209Z,13.97
2018-09-18T02:43:19.440Z,13.17
2018-09-18T02:45:45.760Z,12.13
2018-09-18T02:48:12.001Z,13.10
2018-09-18T02:50:38.243Z,11.87
2018-09-18T02:53:08.806Z,11.93
2018-09-18T02:55:35.593Z,12.30
2018-09-18T02:58:01.925Z,13.67
2018-09-18T03:00:28.178Z,13.53
2018-09-18T03:02:54.453Z,13.30
2018-09-18T03:05:21.497Z,13.10
2018-09-18T03:07:48.518Z,13.10
2018-09-18T03:10:14.811Z,14.93
2018-09-18T03:12:41.068Z,14.20
2018-09-18T03:15:07.349Z,13.37
2018-09-18T03:17:33.632Z,12.67
2018-09-18T03:19:59.917Z,14.07
2018-09-18T03:22:26.194Z,11.57
2018-09-18T03:24:52.473Z,13.00
2018-09-18T03:27:18.841Z,12.80
2018-09-18T03:29:45.088Z,12.07
2018-09-18T03:32:11.326Z,12.17
2018-09-18T03:34:37.618Z,12.40
2018-09-18T03:37:03.910Z,13.70
2018-09-18T03:39:40.188Z,11.53
2018-09-18T03:42:06.463Z,12.90
2018-09-18T03:44:32.735Z,12.00
2018-09-18T03:46:59.728Z,13.93
2018-09-18T03:49:26.004Z,13.63
2018-09-18T03:51:52.268Z,12.90
2018-09-18T03:54:18.570Z,12.20
2018-09-18T03:56:44.821Z,13.57
2018-09-18T03:59:11.073Z,13.97
2018-09-18T04:01:37.379Z,11.20
2018-09-18T04:04:04.459Z,12.87
2018-09-18T04:06:30.732Z,12.50
2018-09-18T04:08:56.997Z,13.13
2018-09-18T04:11:23.276Z,11.37
2018-09-18T04:13:49.530Z,12.00
2018-09-18T04:16:15.809Z,12.87
2018-09-18T04:18:42.074Z,12.77
2018-09-18T04:21:08.369Z,12.37
2018-09-18T04:23:34.607Z,14.50
2018-09-18T04:26:01.516Z,13.20
2018-09-18T04:28:27.978Z,13.57
2018-09-18T04:30:54.247Z,11.80
2018-09-18T04:33:20.527Z,13.10
2018-09-18T04:35:46.794Z,15.23
2018-09-18T04:38:13.066Z,13.70
2018-09-18T04:40:39.340Z,13.40
2018-09-18T04:43:05.597Z,13.13
2018-09-18T04:45:31.962Z,14.30
2018-09-18T04:47:58.241Z,13.17
2018-09-18T04:50:24.513Z,15.83
2018-09-18T04:52:50.769Z,12.60
2018-09-18T04:55:17.043Z,12.27
2018-09-18T04:57:43.346Z,13.43
2018-09-18T05:00:09.682Z,17.23
2018-09-18T05:02:35.936Z,13.90
2018-09-18T05:05:02.283Z,13.30
2018-09-18T05:07:28.534Z,14.27
2018-09-18T05:09:54.830Z,16.07
2018-09-18T05:12:21.079Z,12.67
2018-09-18T05:14:49.300Z,13.37
2018-09-18T05:17:15.549Z,13.13
2018-09-18T05:19:41.830Z,14.23
2018-09-18T05:22:08.848Z,14.37
2018-09-18T05:24:36.037Z,14.17
2018-09-18T05:27:03.447Z,12.50
2018-09-18T05:29:29.971Z,12.57
2018-09-18T05:31:56.883Z,14.00
2018-09-18T05:34:23.197Z,13.50
2018-09-18T05:36:49.699Z,13.47
2018-09-18T05:39:16.001Z,14.03
2018-09-18T05:41:42.635Z,20.23
2018-09-18T05:44:10.619Z,13.93
2018-09-18T05:46:41.350Z,16.03
2018-09-18T05:49:09.841Z,11.63
2018-09-18T05:51:37.961Z,14.10
2018-09-18T05:54:06.793Z,14.80
2018-09-18T05:56:39.548Z,14.87
2018-09-18T05:59:07.623Z,13.17
2018-09-18T06:01:37.115Z,16.10
2018-09-18T06:04:09.159Z,14.63
2018-09-18T06:06:36.340Z,13.37
2018-09-18T06:09:07.006Z,13.50
2018-09-18T06:11:34.508Z,13.93
2018-09-18T06:14:01.870Z,13.87
2018-09-18T06:16:31.677Z,13.63
2018-09-18T06:18:59.343Z,13.83
2018-09-18T06:21:27.993Z,14.37
2018-09-18T06:36:55.647Z,11.97
2018-09-18T06:39:26.114Z,11.93
2018-09-18T06:41:53.775Z,11.80
2018-09-18T06:44:23.081Z,11.97
2018-09-18T06:46:50.965Z,13.60
2018-09-18T06:49:20.058Z,16.37
2018-09-18T06:51:48.316Z,11.80
2018-09-18T06:54:17.858Z,11.73
2018-09-18T06:56:46.835Z,12.27
2018-09-18T06:59:14.033Z,10.50
2018-09-18T07:01:42.492Z,12.00
2018-09-18T07:04:11.380Z,11.63
2018-09-18T07:06:39.644Z,9.37
2018-09-18T07:11:44.094Z,10.00
2018-09-18T07:14:12.980Z,10.37
2018-09-18T07:16:40.166Z,9.93
2018-09-18T07:19:08.597Z,10.50
2018-09-18T07:21:38.141Z,10.00
2018-09-18T07:24:06.326Z,10.70
2018-09-18T07:26:35.510Z,12.07
2018-09-18T07:29:06.686Z,10.90
2018-09-18T07:31:37.717Z,13.07
2018-09-18T07:34:05.221Z,11.60
2018-09-18T07:36:32.787Z,12.63
2018-09-18T07:39:03.876Z,11.50
2018-09-18T07:41:32.566Z,12.00
2018-09-18T07:44:01.501Z,13.27
2018-09-18T07:46:30.418Z,13.93
2018-09-18T07:49:01.191Z,12.40
2018-09-18T07:51:30.903Z,11.00
2018-09-18T07:54:02.942Z,12.90
2018-09-18T07:56:33.184Z,11.97
2018-09-18T07:59:00.178Z,11.67
2018-09-18T08:01:32.206Z,12.90
2018-09-18T08:06:34.035Z,11.23
2018-09-18T08:09:02.438Z,10.67
2018-09-18T08:11:31.231Z,10.97
2018-09-18T08:13:59.497Z,11.10
2018-09-18T08:16:30.519Z,9.73
2018-09-18T08:19:00.776Z,11.23
2018-09-18T08:21:29.052Z,9.10
2018-09-18T08:23:56.616Z,9.57
2018-09-18T08:26:22.926Z,9.80
2018-09-18T08:28:49.227Z,10.10
2018-09-18T08:31:15.520Z,9.37
2018-09-18T08:33:41.784Z,9.27
2018-09-18T08:36:08.103Z,9.10
2018-09-18T08:38:34.390Z,8.90
2018-09-18T08:41:01.401Z,8.30
2018-09-18T08:43:27.705Z,8.97
2018-09-18T08:45:53.978Z,8.27
2018-09-18T08:48:20.283Z,8.40
2018-09-18T08:50:46.559Z,9.03
2018-09-18T08:53:12.905Z,9.07
2018-09-18T08:55:39.230Z,7.57
2018-09-18T08:58:05.529Z,8.03
2018-09-18T09:00:31.829Z,7.70
2018-09-18T09:02:58.096Z,8.50
2018-09-18T09:05:24.343Z,7.00
2018-09-18T09:07:50.680Z,8.23
2018-09-18T09:10:17.017Z,7.37
2018-09-18T09:12:43.245Z,7.50
2018-09-18T09:15:09.597Z,7.80
2018-09-18T09:17:35.816Z,7.77
2018-09-18T09:20:02.853Z,7.13
2018-09-18T09:22:29.155Z,8.10
2018-09-18T09:24:55.445Z,7.97
2018-09-18T09:27:21.680Z,7.50
2018-09-18T09:29:47.999Z,8.20
2018-09-18T09:32:15.066Z,8.93
2018-09-18T09:34:41.321Z,7.30
2018-09-18T09:37:07.642Z,7.77
2018-09-18T09:39:34.618Z,8.23
2018-09-18T09:42:00.914Z,7.63
2018-09-18T09:44:27.186Z,8.77
2018-09-18T09:46:53.417Z,8.53
2018-09-18T09:49:19.938Z,7.97
2018-09-18T09:51:46.283Z,8.83
2018-09-18T09:54:12.518Z,7.70
2018-09-18T09:56:38.970Z,8.10
2018-09-18T09:59:06.025Z,8.10
2018-09-18T10:01:33.111Z,8.10
2018-09-18T10:04:00.183Z,8.23
2018-09-18T10:06:26.478Z,8.13
2018-09-18T10:08:52.766Z,8.53
2018-09-18T10:11:19.039Z,9.10
2018-09-18T10:13:45.507Z,8.50
2018-09-18T10:16:11.810Z,7.83
2018-09-18T10:18:38.062Z,7.90
2018-09-18T10:21:04.324Z,8.10
2018-09-18T10:23:30.558Z,9.03
2018-09-18T10:25:56.872Z,8.47
2018-09-18T10:28:23.089Z,9.00
2018-09-18T10:30:49.376Z,8.40
2018-09-18T10:33:15.667Z,8.57
2018-09-18T10:35:41.942Z,8.30
2018-09-18T10:38:08.192Z,8.60
2018-09-18T10:40:34.479Z,8.30
2018-09-18T10:43:01.635Z,7.73
2018-09-18T10:45:27.761Z,10.43
2018-09-18T10:47:54.738Z,8.77
2018-09-18T10:50:21.011Z,9.20
2018-09-18T10:52:48.045Z,8.87
2018-09-18T10:55:14.334Z,9.30
2018-09-18T10:57:40.590Z,8.60
2018-09-18T11:00:06.898Z,7.80
2018-09-18T11:02:33.194Z,8.43
2018-09-18T11:04:59.467Z,7.90
2018-09-18T11:07:25.745Z,8.50
2018-09-18T11:09:52.091Z,7.60
2018-09-18T11:12:18.380Z,8.83
2018-09-18T11:14:44.588Z,6.57
2018-09-18T11:17:10.826Z,7.27
2018-09-18T11:19:37.235Z,8.80
2018-09-18T11:22:04.142Z,7.80
2018-09-18T11:24:30.406Z,8.30
2018-09-18T11:26:56.660Z,9.73
2018-09-18T11:29:22.949Z,7.93
2018-09-18T11:31:49.239Z,8.53
2018-09-18T11:34:15.515Z,8.47
2018-09-18T11:36:41.774Z,8.07
2018-09-18T11:39:08.026Z,8.50
2018-09-18T11:41:34.295Z,8.17
2018-09-18T11:44:01.337Z,8.63
2018-09-18T11:46:27.702Z,8.20
2018-09-18T11:48:53.923Z,7.60
2018-09-18T11:51:20.219Z,7.80
2018-09-18T11:53:46.438Z,7.73
2018-09-18T11:56:12.710Z,7.53
2018-09-18T11:58:39.750Z,8.13
2018-09-18T12:01:06.032Z,8.97
2018-09-18T12:03:32.302Z,8.37
2018-09-18T12:05:58.568Z,7.80
2018-09-18T12:08:24.804Z,7.90
2018-09-18T12:10:51.074Z,8.40
2018-09-18T12:13:17.340Z,7.70
2018-09-18T12:15:43.628Z,7.53
2018-09-18T12:18:09.876Z,7.63
2018-09-18T12:20:36.178Z,8.93
2018-09-18T12:23:02.438Z,7.17
2018-09-18T12:25:28.690Z,9.43
2018-09-18T12:27:54.950Z,8.67
2018-09-18T12:30:21.193Z,8.17
2018-09-18T12:32:47.471Z,9.30
2018-09-18T12:35:13.750Z,9.10
2018-09-18T12:37:40.001Z,11.70
2018-09-18T12:40:06.322Z,8.43
2018-09-18T12:42:32.718Z,7.97
2018-09-18T12:44:58.853Z,8.17
2018-09-18T12:47:25.122Z,8.40
2018-09-18T12:49:51.645Z,7.20
2018-09-18T12:52:17.652Z,8.30
2018-09-18T12:54:43.882Z,8.37
2018-09-18T12:57:10.309Z,9.43
2018-09-18T12:59:36.508Z,7.47
2018-09-18T13:02:02.704Z,8.70
2018-09-18T13:04:28.974Z,8.27
2018-09-18T13:06:55.320Z,8.17
2018-09-18T13:09:21.534Z,8.90
2018-09-18T13:11:47.923Z,8.93
2018-09-18T13:14:14.345Z,8.63
2018-09-18T13:16:40.538Z,8.13
2018-09-18T13:19:06.814Z,9.07
2018-09-18T13:21:33.082Z,7.43
2018-09-18T13:24:00.095Z,7.70
2018-09-18T13:26:26.405Z,7.77
2018-09-18T13:28:52.675Z,8.10
2018-09-18T13:31:18.913Z,8.17
2018-09-18T13:33:45.197Z,8.43
2018-09-18T13:36:11.441Z,8.30
2018-09-18T13:38:37.686Z,8.27
2018-09-18T13:41:04.167Z,7.63
2018-09-18T13:43:30.276Z,9.20
2018-09-18T13:45:57.261Z,8.27
2018-09-18T13:48:23.538Z,8.30
2018-09-18T13:50:49.782Z,8.67
2018-09-18T13:53:16.059Z,8.27
2018-09-18T13:55:42.320Z,7.93
2018-09-18T13:58:18.609Z,8.00
2018-09-18T14:00:45.607Z,9.00
2018-09-18T14:03:11.952Z,8.73
2018-09-18T14:05:39.023Z,7.63
2018-09-18T14:08:05.362Z,8.53
2018-09-18T14:10:32.315Z,11.60
2018-09-18T14:12:59.074Z,7.20
2018-09-18T14:15:25.882Z,9.37
2018-09-18T14:17:52.148Z,8.23
2018-09-18T14:20:22.233Z,8.60
2018-09-18T14:22:48.538Z,7.53
2018-09-18T14:25:15.445Z,8.30
2018-09-18T14:27:41.755Z,7.87
2018-09-18T14:30:08.751Z,8.30
2018-09-18T14:32:35.045Z,7.63
2018-09-18T14:35:01.322Z,8.53
2018-09-18T14:37:27.579Z,7.97
2018-09-18T14:39:53.962Z,7.80
2018-09-18T14:42:20.241Z,8.27
2018-09-18T14:44:46.524Z,9.00
2018-09-18T14:47:13.081Z,8.00
2018-09-18T14:49:39.419Z,7.70
2018-09-18T14:52:05.732Z,7.20
2018-09-18T14:54:34.693Z,8.30
2018-09-18T14:57:02.282Z,7.80
2018-09-18T14:59:29.541Z,7.77
2018-09-18T15:01:56.489Z,8.63
2018-09-18T15:04:23.458Z,7.27
2018-09-18T15:06:50.416Z,8.33
2018-09-18T15:09:16.677Z,8.20
2018-09-18T15:11:44.806Z,8.40
2018-09-18T15:14:16.321Z,11.37
2018-09-18T15:16:44.263Z,8.70
2018-09-18T15:19:11.228Z,7.97
2018-09-18T15:21:37.610Z,8.67
2018-09-18T15:24:03.829Z,7.67
2018-09-18T15:26:30.074Z,7.17
2018-09-18T15:28:56.752Z,7.50
2018-09-18T15:31:23.403Z,7.80
2018-09-18T15:33:54.346Z,7.77
2018-09-18T15:36:21.348Z,7.87
2018-09-18T15:38:48.309Z,7.10
2018-09-18T15:41:15.237Z,7.27
2018-09-18T15:43:41.949Z,7.63
2018-09-18T15:46:16.146Z,7.53
2018-09-18T15:48:43.879Z,8.90
2018-09-18T15:51:13.586Z,7.60
2018-09-18T15:53:41.641Z,7.43
2018-09-18T15:56:08.249Z,7.43
2018-09-18T15:58:35.309Z,11.53
2018-09-18T16:01:03.582Z,8.47
2018-09-18T16:06:04.313Z,8.40
2018-09-18T16:08:30.669Z,7.73
2018-09-18T16:10:57.041Z,7.70
2018-09-18T16:13:23.314Z,8.03
2018-09-18T16:15:49.586Z,7.27
2018-09-18T16:18:15.972Z,7.80
2018-09-18T16:20:42.256Z,7.70
2018-09-18T16:23:08.493Z,7.50
2018-09-18T16:25:35.186Z,8.17
2018-09-18T16:28:01.433Z,7.83
2018-09-18T16:30:27.714Z,7.60
2018-09-18T16:32:53.990Z,9.43
2018-09-18T16:35:20.517Z,8.53
2018-09-18T16:37:46.797Z,7.40
2018-09-18T16:40:23.159Z,6.50
2018-09-18T16:42:49.379Z,7.53
2018-09-18T16:45:15.633Z,7.33
2018-09-18T16:47:42.656Z,8.70
2018-09-18T16:50:08.903Z,7.67
2018-09-18T16:52:35.984Z,7.70
2018-09-18T16:55:02.377Z,8.03
2018-09-18T16:57:28.493Z,7.60
2018-09-18T16:59:54.766Z,7.67
2018-09-18T17:02:21.151Z,8.13
2018-09-18T17:04:47.363Z,7.40
2018-09-18T17:07:14.295Z,7.93
2018-09-18T17:09:42.727Z,8.80
2018-09-18T17:12:09.922Z,8.60
2018-09-18T17:14:42.404Z,11.97
2018-09-18T17:17:09.021Z,8.13
2018-09-18T17:19:39.646Z,8.20
2018-09-18T17:22:07.069Z,7.63
2018-09-18T17:24:34.236Z,7.73
2018-09-18T17:27:00.557Z,8.70
2018-09-18T17:29:26.805Z,11.37
2018-09-18T17:32:00.079Z,7.93
2018-09-18T17:34:26.492Z,7.80
2018-09-18T17:36:52.677Z,10.47
2018-09-18T17:39:19.603Z,10.23
2018-09-18T17:41:45.925Z,9.40
2018-09-18T17:44:13.418Z,8.13
2018-09-18T17:46:40.071Z,8.77
2018-09-18T17:49:09.657Z,11.00
2018-09-18T17:51:40.084Z,14.80
2018-09-18T17:54:09.478Z,9.13
2018-09-18T17:56:36.080Z,9.30
2018-09-18T17:59:04.447Z,8.33
2018-09-18T18:01:30.706Z,9.50
2018-09-18T18:04:02.158Z,9.10
2018-09-18T18:06:32.099Z,7.50
2018-09-18T18:09:04.005Z,8.80
2018-09-18T18:11:33.958Z,8.37
2018-09-18T18:14:05.118Z,9.03
2018-09-18T18:16:32.220Z,9.33
2018-09-18T18:19:00.556Z,9.30
2018-09-18T18:21:29.098Z,9.60
2018-09-18T18:23:59.103Z,8.70
2018-09-18T18:26:26.396Z,9.43
2018-09-18T18:28:55.506Z,11.80
2018-09-18T18:31:26.511Z,9.30
2018-09-18T18:33:54.730Z,8.30
2018-09-18T18:36:26.022Z,15.23
2018-09-18T18:38:55.134Z,12.87
2018-09-18T18:41:25.017Z,13.70
2018-09-18T18:43:53.354Z,14.77
2018-09-18T18:46:23.838Z,14.50
2018-09-18T18:48:50.923Z,22.37
2018-09-18T18:51:23.378Z,22.20
2018-09-18T18:53:52.033Z,14.43
2018-09-18T18:56:20.334Z,15.40
2018-09-18T18:58:53.607Z,20.43
2018-09-18T19:01:23.293Z,14.50
2018-09-18T19:03:52.208Z,17.30
2018-09-18T19:06:21.702Z,18.10
2018-09-18T19:08:49.428Z,12.00
2018-09-18T19:11:16.623Z,15.83
2018-09-18T19:13:45.153Z,10.33
2018-09-18T19:16:13.913Z,9.77
2018-09-18T19:18:41.901Z,9.77
2018-09-18T19:21:09.554Z,10.00
2018-09-18T19:23:37.389Z,9.77
2018-09-18T19:26:05.598Z,10.47
2018-09-18T19:28:35.063Z,9.73
2018-09-18T19:31:06.547Z,8.77
2018-09-18T19:33:34.045Z,10.13
2018-09-18T19:36:04.300Z,9.57
2018-09-18T19:38:31.878Z,9.03
2018-09-18T19:41:00.660Z,9.37
2018-09-18T19:43:29.008Z,9.23
2018-09-18T19:46:01.218Z,10.60
2018-09-18T19:48:29.960Z,10.10
2018-09-18T19:50:58.686Z,10.23
2018-09-18T19:53:27.936Z,10.60
2018-09-18T19:55:56.558Z,10.33
2018-09-18T19:58:24.788Z,10.70
2018-09-18T20:00:53.499Z,10.03
2018-09-18T20:03:21.085Z,10.63
2018-09-18T20:05:48.652Z,11.53
2018-09-18T20:08:16.117Z,10.33
2018-09-18T20:10:43.608Z,9.80
2018-09-18T20:13:10.740Z,11.77
2018-09-18T20:15:37.767Z,9.70
2018-09-18T20:18:05.004Z,11.67
2018-09-18T20:20:32.744Z,10.80
2018-09-18T20:23:00.222Z,16.73
2018-09-18T20:25:28.050Z,10.30
2018-09-18T20:27:56.316Z,11.77
2018-09-18T20:30:23.495Z,10.53
2018-09-18T20:32:53.105Z,10.63
2018-09-18T20:35:21.114Z,9.43
2018-09-18T20:37:48.737Z,10.50
2018-09-18T20:40:19.309Z,11.27
2018-09-18T20:42:46.399Z,10.50
2018-09-18T20:45:14.269Z,11.60
2018-09-18T20:47:45.281Z,11.13
2018-09-18T20:50:11.608Z,10.80
2018-09-18T20:52:37.889Z,10.00
2018-09-18T20:55:04.202Z,11.77
2018-09-18T20:57:30.583Z,10.57
2018-09-18T20:59:58.323Z,11.57
2018-09-18T21:02:24.658Z,11.33
2018-09-18T21:04:50.897Z,11.13
2018-09-18T21:07:17.214Z,10.70
2018-09-18T21:09:43.451Z,11.40
2018-09-18T21:12:09.731Z,11.03
2018-09-18T21:14:35.982Z,12.67
2018-09-18T21:17:02.272Z,10.37
2018-09-18T21:19:29.287Z,11.90
2018-09-18T21:21:55.602Z,11.73
2018-09-18T21:24:21.864Z,12.50
2018-09-18T21:26:48.144Z,12.77
2018-09-18T21:29:19.218Z,12.13
2018-09-18T21:31:46.514Z,12.13
2018-09-18T21:34:13.537Z,12.70
2018-09-18T21:36:42.559Z,11.67
2018-09-18T21:41:51.187Z,11.77
2018-09-18T21:44:19.198Z,12.23
2018-09-18T21:46:46.580Z,11.80
2018-09-18T21:49:13.880Z,11.87
2018-09-18T21:51:40.268Z,12.73
2018-09-18T21:54:08.384Z,13.23
2018-09-18T21:56:34.701Z,12.63
2018-09-18T21:59:06.678Z,12.33
2018-09-18T22:01:34.323Z,11.50
2018-09-18T22:04:00.565Z,10.67
2018-09-18T22:06:26.833Z,10.70
2018-09-18T22:08:53.169Z,11.43
2018-09-18T22:11:19.448Z,10.30
2018-09-18T22:13:46.002Z,12.13
2018-09-18T22:16:12.629Z,11.87
2018-09-18T22:18:39.502Z,10.37
2018-09-18T22:21:06.657Z,10.60
2018-09-18T22:23:33.571Z,10.37
2018-09-18T22:26:00.412Z,11.10
2018-09-18T22:28:27.522Z,9.73
2018-09-18T22:30:53.823Z,11.07
2018-09-18T22:33:20.118Z,10.63
2018-09-18T22:35:46.429Z,10.70
2018-09-18T22:38:14.545Z,10.63
2018-09-18T22:40:40.987Z,10.50
2018-09-18T22:43:07.449Z,10.73
2018-09-18T22:45:41.492Z,11.23
2018-09-18T22:48:07.818Z,11.30
2018-09-18T22:50:34.157Z,10.90
2018-09-18T22:53:00.445Z,11.77
2018-09-18T22:55:26.705Z,11.93
2018-09-18T22:57:52.965Z,10.60
2018-09-18T23:00:19.283Z,12.17
2018-09-18T23:02:45.539Z,12.57
2018-09-18T23:05:11.919Z,11.60
2018-09-18T23:07:38.295Z,11.07
2018-09-18T23:10:04.629Z,12.63
2018-09-18T23:12:30.992Z,12.50
2018-09-18T23:14:58.076Z,13.10
2018-09-18T23:17:24.370Z,12.17
2018-09-18T23:19:50.634Z,12.07
2018-09-18T23:22:16.999Z,11.73
2018-09-18T23:24:43.352Z,12.00
2018-09-18T23:27:09.591Z,11.17
2018-09-18T23:29:35.903Z,12.47
2018-09-18T23:32:02.307Z,18.53
2018-09-18T23:34:28.674Z,12.60
2018-09-18T23:59:50.773Z,14.47
